• Join FlightAware (Why Join?)
  • Login
  • US Flag 
09:50AM EDT


 

Airport Tracker/Info


-or-


 

Live Flight TrackerFlight Track Log ✈ OPT332 ✈ 07-Nov-2013 ✈ KTEB - KVRB

Flight Track Log - Related Links

Times and Time Zones

All times are in EST time to prevent confusion due to time zone crossing. See the OPT332 flight status page for this flight to view local times or setup timezone preferences in your user account.

Time Position Orientation Groundspeed Altitude Reporting Facility
EST Latitude Longitude Course Direction KTS MPH feet Rate Location/Type
11:11AM 40.8461 -74.0719 30° Northeast 144 166 900  Level FlightAware ADS-B
11:12AM 40.8391 -74.0821 228° Southwest 156 180 1,400 1,560 Climbing FlightAware ADS-B
11:12AM 40.8334 -74.0895 224° Southwest 163 188 1,600 840 Climbing FlightAware ADS-B
11:12AM 40.8315 -74.0921 226° Southwest 166 191 1,600  Level FlightAware ADS-B
11:12AM 40.8296 -74.0952 231° Southwest 167 192 1,600  Level FlightAware ADS-B
11:12AM 40.8281 -74.0986 240° Southwest 169 194 1,600  Level FlightAware ADS-B
11:12AM 40.8268 -74.1031 249° West 171 197 1,600  Level FlightAware ADS-B
11:12AM 40.8263 -74.1062 258° West 171 197 1,600  Level FlightAware ADS-B
11:12AM 40.8260 -74.1102 264° West 173 199 1,600 1,980 Level FlightAware ADS-B
11:13AM 40.8218 -74.1662 264° West 185 213 3,500 2,280 Climbing FlightAware ADS-B
11:13AM 40.8188 -74.1710 230° Southwest 188 216 3,900 4,680 Climbing FlightAware ADS-B
11:13AM 40.8136 -74.1769 221° Southwest 189 217 4,600 4,860 Climbing FlightAware ADS-B
11:13AM 40.8108 -74.1791 211° Southwest 195 224 4,800 3,420 Climbing FlightAware ADS-B
11:13AM 40.8078 -74.1809 204° Southwest 201 231 5,000 2,280 Climbing FlightAware ADS-B
11:14AM 40.7912 -74.1884 199° South 236 272 5,600 1,920 Climbing FlightAware ADS-B
11:14AM 40.7785 -74.1935 197° South 251 289 5,900 1,800 Climbing FlightAware ADS-B
11:14AM 40.7619 -74.1996 196° South 261 300 6,400 3,000 Climbing FlightAware ADS-B
11:14AM 40.7441 -74.2058 195° South 261 300 7,400 5,040 Climbing FlightAware ADS-B
11:15AM 40.7236 -74.2129 195° South 249 287 9,200 3,180 Climbing FlightAware ADS-B
11:15AM 40.6706 -74.2317 195° South 245 282 10,900 1,440 Climbing FlightAware ADS-B
11:16AM 40.6376 -74.2436 195° South 245 282 11,100 360 Climbing FlightAware ADS-B
11:16AM 40.5998 -74.2488 186° South 273 314 11,300 480 Climbing FlightAware ADS-B
11:17AM 40.5955 -74.2460 154° Southeast 282 325 11,400 2,100 Climbing FlightAware ADS-B
11:17AM 40.5848 -74.2347 141° Southeast 287 330 11,800 1,980 Climbing FlightAware ADS-B (KWWD)
11:17AM 40.5773 -74.2249 135° Southeast 301 346 12,000 1,800 Climbing FlightAware ADS-B
11:17AM 40.5751 -74.2220 135° Southeast 301 346 12,100 3,000 Climbing FlightAware ADS-B (KWWD)
11:17AM 40.5496 -74.1848 132° Southeast 285 328 13,500 1,980 Climbing FlightAware ADS-B
11:18AM 40.5219 -74.1443 132° Southeast 288 331 14,100 480 Climbing FlightAware ADS-B (KWWD)
11:19AM 40.4858 -74.0927 133° Southeast 287 330 14,100  Level FlightAware ADS-B (KWWD)
11:19AM 40.4655 -74.0695 139° Southeast 261 300 14,100 1,800 Level FlightAware ADS-B (KWWD)
11:19AM 40.4296 -74.0463 154° Southeast 239 275 15,800 1,800 Climbing FlightAware ADS-B (KWWD)
11:21AM 40.3565 -73.9995 154° Southeast 272 313 17,100 1,020 Climbing FlightAware ADS-B (KWWD)
11:21AM 40.3468 -73.9961 165° South 265 305 17,100  Level FlightAware ADS-B (KWWD)
11:21AM 40.3282 -73.9985 186° South 239 275 17,100  Level FlightAware ADS-B (KWWD)
11:21AM 40.3025 -74.0188 211° Southwest 249 287 17,100  Level FlightAware ADS-B (KWWD)
11:22AM 40.2630 -74.0494 211° Southwest 264 304 17,100  Level FlightAware ADS-B (KWWD)
11:23AM 40.2306 -74.0743 210° Southwest 269 310 17,100  Level FlightAware ADS-B (KWWD)
11:23AM 40.1953 -74.1019 211° Southwest 281 323 17,100 480 Level FlightAware ADS-B (KWWD)
11:24AM 40.1530 -74.1355 211° Southwest 245 282 17,700 1,920 Climbing FlightAware ADS-B (KWWD)
11:24AM 40.1210 -74.1605 211° Southwest 209 241 19,600 2,400 Climbing FlightAware ADS-B (KWWD)
11:25AM 40.0940 -74.1823 212° Southwest 227 261 20,500 1,560 Climbing FlightAware ADS-B (KWWD)
11:25AM 40.0627 -74.2074 212° Southwest 247 284 21,300 1,320 Climbing FlightAware ADS-B (KWWD)
11:26AM 40.0239 -74.2380 211° Southwest 246 283 22,100 1,260 Climbing FlightAware ADS-B (KWWD)
11:27AM 39.9849 -74.2723 214° Southwest 246 283 23,000 1,080 Climbing FlightAware ADS-B (KWWD)
11:27AM 39.9538 -74.3021 216° Southwest 246 283 23,500 900 Climbing FlightAware ADS-B (KWWD)
11:28AM 39.9201 -74.3343 216° Southwest 266 306 24,100 900 Climbing FlightAware ADS-B (KWWD)
11:29AM 39.8762 -74.3760 216° Southwest 281 323 24,700 1,020 Climbing FlightAware ADS-B (KWWD)
11:29AM 39.8349 -74.4152 216° Southwest 279 321 25,500 1,320 Climbing FlightAware ADS-B (KWWD)
11:30AM 39.8033 -74.4501 220° Southwest 274 315 26,300 1,620 Climbing FlightAware ADS-B (KWWD)
11:30AM 39.7772 -74.4854 226° Southwest 278 320 27,200 1,860 Climbing FlightAware ADS-B (KWWD)
11:31AM 39.7417 -74.5322 225° Southwest 265 305 28,500 1,860 Climbing FlightAware ADS-B (KWWD)
11:31AM 39.7150 -74.5674 225° Southwest 264 304 29,400 1,260 Climbing FlightAware ADS-B (KWWD)
11:32AM 39.6799 -74.6141 226° Southwest 282 325 30,000 660 Climbing FlightAware ADS-B (KWWD)
11:33AM 39.6429 -74.6631 226° Southwest 301 346 30,300 480 Climbing FlightAware ADS-B (KWWD)
11:33AM 39.6116 -74.7043 225° Southwest 311 358 30,600 540 Climbing FlightAware ADS-B (KWWD)
11:34AM 39.5780 -74.7485 225° Southwest 327 376 30,900 300 Climbing FlightAware ADS-B (KWWD)
11:34AM 39.5366 -74.8030 225° Southwest 330 380 31,000 60 Climbing FlightAware ADS-B (KWWD)
11:35AM 39.5028 -74.8474 225° Southwest 332 382 31,000  Level FlightAware ADS-B (KWWD)
11:36AM 39.4600 -74.9034 225° Southwest 340 391 31,000 60 Level FlightAware ADS-B (KWWD)
11:36AM 39.4249 -74.9490 225° Southwest 332 382 31,100 540 Climbing FlightAware ADS-B (KWWD)
11:37AM 39.3823 -75.0047 225° Southwest 328 377 31,700 1,020 Climbing FlightAware ADS-B (KWWD)
11:37AM 39.3485 -75.0488 225° Southwest 325 374 32,300 1,020 Climbing FlightAware ADS-B (KWWD)
11:38AM 39.3055 -75.1029 224° Southwest 330 380 32,900 1,080 Climbing FlightAware ADS-B (KWWD)
11:39AM 39.2368 -75.1783 220° Southwest 323 372 34,100 1,320 Climbing FlightAware ADS-B (KWWD)
11:39AM 39.2025 -75.2146 219° Southwest 313 360 34,900 1,440 Climbing FlightAware ADS-B (KWWD)
11:40AM 39.1386 -75.2827 220° Southwest 296 341 36,300 1,440 Climbing FlightAware ADS-B (KWWD)
11:41AM 39.1353 -75.2862 220° Southwest 304 350 36,700 960 Climbing FlightAware ADS-B (KSBY)
11:41AM 39.0746 -75.3357 212° Southwest 329 379 37,200 840 Climbing FlightAware ADS-B (KWWD)
11:42AM 39.0205 -75.3502 192° South 326 375 37,800 960 Climbing FlightAware ADS-B (KWWD)
11:42AM 38.9706 -75.3626 191° South 327 376 38,300 900 Climbing FlightAware ADS-B (KWWD)
11:43AM 38.9255 -75.3736 191° South 328 377 38,800 1,020 Climbing FlightAware ADS-B (KWWD)
11:43AM 38.8748 -75.3857 191° South 337 388 39,400 840 Climbing FlightAware ADS-B (KAPG)
11:44AM 38.8200 -75.3987 190° South 331 381 39,800 480 Climbing FlightAware ADS-B (KWWD)
11:45AM 38.7684 -75.4110 191° South 347 399 40,000 120 Climbing FlightAware ADS-B (KSBY)
11:45AM 38.7144 -75.4240 191° South 354 407 40,000  Level FlightAware ADS-B (KSBY)
11:46AM 38.6566 -75.4375 190° South 357 411 40,000  Level FlightAware ADS-B (KWWD)
11:46AM 38.6070 -75.4492 190° South 359 413 40,000  Level FlightAware ADS-B (KWWD)
11:47AM 38.5568 -75.4610 190° South 361 415 40,000  Level FlightAware ADS-B (KWWD)
11:47AM 38.5076 -75.4726 190° South 363 418 40,000  Level FlightAware ADS-B (KWWD)
11:48AM 38.4463 -75.4870 190° South 365 420 40,000  Level FlightAware ADS-B (KSBY)
11:48AM 38.3888 -75.5004 190° South 358 412 40,000  Level FlightAware ADS-B (KWWD)
11:49AM 38.3607 -75.5070 190° South 367 422 40,000  Level FlightAware ADS-B (KSBY)
11:49AM 38.3438 -75.5115 192° South 366 421 40,000  Level FlightAware ADS-B (KSBY)
11:49AM 38.3310 -75.5163 196° South 366 421 40,000  Level FlightAware ADS-B (KSBY)
11:50AM 38.2769 -75.5405 199° South 359 413 40,000 60 Level FlightAware ADS-B (KWWD)
11:50AM 38.2156 -75.5668 199° South 359 413 40,100 300 Climbing FlightAware ADS-B (KWWD)
11:51AM 38.1683 -75.5902 201° Southwest 350 403 40,400 600 Climbing FlightAware ADS-B (KWWD)
11:51AM 38.1134 -75.6314 211° Southwest 349 402 40,800 600 Climbing FlightAware ADS-B (KSBY)
11:52AM 38.0627 -75.6682 210° Southwest 350 403 41,200 540 Climbing FlightAware ADS-B (KSBY)
11:53AM 38.0067 -75.7088 210° Southwest 350 403 41,500 480 Climbing FlightAware ADS-B (KSBY)
11:53AM 37.9689 -75.7364 210° Southwest 349 402 41,800 540 Climbing FlightAware ADS-B (KSBY)
11:54AM 37.9210 -75.7714 210° Southwest 342 394 42,100 720 Climbing FlightAware ADS-B (KWWD)
11:54AM 37.9287 -75.7658 30° Northeast 349 402 42,300 600 Climbing FlightAware ADS-B (KSBY)
11:54AM 37.8682 -75.8098 210° Southwest 349 402 42,500 420 Climbing FlightAware ADS-B (KSBY)
11:55AM 37.8201 -75.8447 210° Southwest 342 394 42,800 480 Climbing FlightAware ADS-B (KWWD)
11:55AM 37.7846 -75.8704 210° Southwest 342 394 43,000 600 Climbing FlightAware ADS-B (KWWD)
11:56AM 37.7637 -75.8856 210° Southwest 342 394 43,200 600 Climbing FlightAware ADS-B (KWWD)
11:56AM 37.7363 -75.9054 210° Southwest 348 400 43,400 480 Climbing FlightAware ADS-B (KSBY)
11:57AM 37.6841 -75.9432 210° Southwest 340 391 43,700 600 Climbing FlightAware ADS-B (KWWD)
11:57AM 37.6355 -75.9783 210° Southwest 337 388 44,100 540 Climbing FlightAware ADS-B (KWWD)
11:58AM 37.5562 -76.0355 210° Southwest 334 384 44,600 360 Climbing FlightAware ADS-B (KWWD)
12:00PM 37.4333 -76.1239 210° Southwest 337 388 45,000 180 Climbing FlightAware ADS-B (KWWD)
12:00PM 37.3785 -76.1632 210° Southwest 338 389 45,000  Level FlightAware ADS-B (KWWD)
12:01PM 37.3259 -76.2009 210° Southwest 340 391 45,000  Level FlightAware ADS-B (KWWD)
12:02PM 37.2503 -76.2549 210° Southwest 341 392 45,000  Level FlightAware ADS-B (KWWD)
12:03PM 37.1364 -76.3317 210° Southwest 355 409 45,000  Level Washington Center
12:04PM 37.0525 -76.3908 209° Southwest 355 409 45,000  Level Washington Center
12:05PM 36.9667 -76.4522 210° Southwest 355 409 45,000  Level Washington Center
12:06PM 36.8828 -76.5136 210° Southwest 355 409 45,000  Level Washington Center
12:07PM 36.7947 -76.5750 209° Southwest 355 409 45,000  Level Washington Center
12:08PM 36.7106 -76.6361 210° Southwest 355 409 45,000  Level Washington Center
12:09PM 36.6244 -76.6997 211° Southwest 360 414 45,000  Level Washington Center
12:10PM 36.5383 -76.7606 210° Southwest 360 414 45,000  Level Washington Center
12:11PM 36.4503 -76.8186 208° Southwest 355 409 45,000  Level Washington Center
12:12PM 36.3725 -76.8742 210° Southwest 355 409 45,000  Level Washington Center
12:13PM 36.2842 -76.9344 209° Southwest 360 414 45,000  Level Washington Center
12:14PM 36.1981 -76.9947 209° Southwest 360 414 45,000  Level Washington Center
12:15PM 36.1097 -77.0522 208° Southwest 355 409 45,000  Level Washington Center
12:21PM 35.5903 -77.4100 208° Southwest 368 423 45,000  Level FlightAware ADS-B
12:22PM 35.5870 -77.4122 210° Southwest 369 425 45,000  Level FlightAware ADS-B
12:23PM 35.3968 -77.5410 209° Southwest 369 425 45,000  Level FlightAware ADS-B
12:24PM 35.3443 -77.5860 215° Southwest 369 425 45,000  Level FlightAware ADS-B
12:24PM 35.3309 -77.6005 221° Southwest 362 417 45,000  Level FlightAware ADS-B
12:24PM 35.2814 -77.6520 220° Southwest 363 418 45,000  Level FlightAware ADS-B
12:25PM 35.2430 -77.6916 220° Southwest 362 417 45,000  Level FlightAware ADS-B
12:25PM 35.2013 -77.7348 220° Southwest 362 417 45,000  Level FlightAware ADS-B
12:26PM 35.1524 -77.7854 220° Southwest 363 418 45,000 -420 Level FlightAware ADS-B
12:27PM 35.1014 -77.8381 220° Southwest 367 422 44,500 -900 Descending FlightAware ADS-B
12:28PM 35.0349 -77.9067 220° Southwest 368 423 43,700 -960 Descending FlightAware ADS-B
12:28PM 34.9752 -77.9682 220° Southwest 370 426 43,000 -540 Descending FlightAware ADS-B
12:29PM 34.9288 -78.0158 220° Southwest 369 425 43,000  Level FlightAware ADS-B
12:30PM 34.8380 -78.1090 220° Southwest 368 423 43,000  Level FlightAware ADS-B
12:31PM 34.7485 -78.2003 220° Southwest 368 423 43,000  Level FlightAware ADS-B
12:32PM 34.6569 -78.2937 220° Southwest 370 426 43,000  Level FlightAware ADS-B
12:33PM 34.6168 -78.3345 220° Southwest 370 426 43,000  Level FlightAware ADS-B
12:34PM 34.5272 -78.4319 220° Southwest 366 421 43,000  Level Jacksonville Center
12:35PM 34.4467 -78.5142 220° Southwest 375 432 43,000  Level Jacksonville Center
12:36PM 34.3681 -78.5936 220° Southwest 380 437 43,000  Level Jacksonville Center
12:37PM 34.2875 -78.6731 219° Southwest 380 437 43,000  Level Jacksonville Center
12:38PM 34.2086 -78.7522 220° Southwest 380 437 43,000  Level Jacksonville Center
12:39PM 34.1278 -78.8336 220° Southwest 380 437 43,000  Level Jacksonville Center
12:40PM 34.0469 -78.9128 219° Southwest 380 437 43,000  Level Jacksonville Center
12:41PM 33.9681 -78.9914 220° Southwest 380 437 43,000  Level Jacksonville Center
12:42PM 33.8869 -79.0700 219° Southwest 380 437 43,000  Level Jacksonville Center
12:43PM 33.8058 -79.1511 220° Southwest 385 443 43,000  Level Jacksonville Center
12:44PM 33.7228 -79.2294 218° Southwest 385 443 43,000  Level Jacksonville Center
12:45PM 33.6536 -79.2972 219° Southwest 377 434 43,000  Level Jacksonville Center
12:46PM 33.5725 -79.3778 220° Southwest 377 434 43,000  Level Jacksonville Center
12:47PM 33.4914 -79.4583 220° Southwest 377 434 43,000  Level Jacksonville Center
12:48PM 33.4100 -79.5386 219° Southwest 382 440 43,000  Level Jacksonville Center
12:49PM 33.3286 -79.6161 219° Southwest 382 440 43,000  Level Jacksonville Center
12:50PM 33.2450 -79.6986 220° Southwest 387 445 43,000  Level Jacksonville Center
12:51PM 33.1614 -79.7761 218° Southwest 387 445 43,000  Level Jacksonville Center
12:52PM 33.0800 -79.8558 219° Southwest 387 445 43,000  Level Jacksonville Center
12:53PM 32.9942 -79.9356 218° Southwest 387 445 43,000  Level Jacksonville Center
12:54PM 32.9103 -80.0150 218° Southwest 387 445 43,000  Level Jacksonville Center
12:55PM 32.8203 -80.0894 215° Southwest 392 451 43,000  Level Jacksonville Center
12:56PM 32.7197 -80.1667 213° Southwest 397 457 43,000  Level Jacksonville Center
12:57PM 32.6272 -80.2336 211° Southwest 397 457 43,000  Level Jacksonville Center
12:58PM 32.5325 -80.3053 213° Southwest 397 457 43,000  Level Jacksonville Center
12:59PM 32.4419 -80.3719 212° Southwest 397 457 43,000  Level Jacksonville Center
01:00PM 32.3494 -80.4333 209° Southwest 397 457 43,000  Level Jacksonville Center
01:01PM 32.2417 -80.4781 199° South 394 453 43,000  Level Jacksonville Center
01:02PM 32.1381 -80.5250 201° Southwest 401 461 43,000  Level Jacksonville Center
01:03PM 32.0344 -80.5669 199° South 406 467 43,000  Level Jacksonville Center
01:04PM 31.9311 -80.6136 201° Southwest 406 467 43,000  Level Jacksonville Center
01:05PM 31.8233 -80.6578 199° South 406 467 43,000  Level Jacksonville Center
01:06PM 31.7175 -80.7019 200° South 406 467 43,000  Level Jacksonville Center
01:07PM 31.6242 -80.7431 201° Southwest 406 467 43,000  Level Jacksonville Center
01:08PM 31.5081 -80.7897 199° South 406 467 43,000  Level Jacksonville Center
01:09PM 31.4025 -80.8358 200° South 406 467 43,000  Level Jacksonville Center
01:10PM 31.2944 -80.8819 200° South 406 467 43,000  Level Jacksonville Center
01:11PM 31.1889 -80.9256 199° South 406 467 43,000  Level Jacksonville Center
01:12PM 31.0850 -80.9714 201° Southwest 406 467 43,000  Level Jacksonville Center
01:13PM 30.9772 -81.0147 199° South 406 467 43,000  Level Jacksonville Center
01:14PM 30.8733 -81.0578 200° South 406 467 43,000  Level Jacksonville Center
01:15PM 30.7656 -81.0986 198° South 406 467 43,000  Level Jacksonville Center
01:16PM 30.6575 -81.1417 199° South 406 467 43,000  Level Jacksonville Center
01:17PM 30.5425 -81.1269 174° South 401 461 43,000  Level Jacksonville Center
01:18PM 30.4272 -81.0978 168° South 408 470 43,000 -540 Level Jacksonville Center
01:19PM 30.3119 -81.0711 169° South 420 483 42,000 -1,500 Descending Jacksonville Center
01:20PM 30.1947 -81.0397 167° South 430 495 40,000 -2,040 Descending Jacksonville Center
01:21PM 30.0794 -81.0131 169° South 430 495 38,000 -2,040 Descending Jacksonville Center
01:22PM 29.9600 -80.9842 168° South 430 495 36,000 -2,040 Descending Jacksonville Center
01:23PM 29.8342 -80.9533 168° South 443 510 34,000 -1,500 Descending Jacksonville Center
01:24PM 29.7106 -80.9244 169° South 448 516 33,000 -540 Descending Jacksonville Center
01:25PM 29.6122 -80.9003 168° South 448 516 33,000 -1,800 Level Jacksonville Center
01:30PM 28.9733 -80.7369 168° South 382 440 22,000 -1,560 Descending FlightAware ADS-B (EGNC / CAX)
01:33PM 28.7031 -80.6857 171° South 371 427 21,200 -600 Descending FlightAware ADS-B
01:34PM 28.6644 -80.6853 180° South 377 434 20,200 -1,920 Descending FlightAware ADS-B
01:35PM 28.5522 -80.6897 180° South 368 423 18,400 -1,860 Descending Miami Center
01:36PM 28.4478 -80.6908 181° South 373 429 16,500 -1,860 Descending Miami Center
01:37PM 28.3581 -80.6925 181° South 373 429 14,700 -2,100 Descending Miami Center
01:38PM 28.2431 -80.6958 181° South 368 423 12,400 -2,100 Descending Miami Center
01:39PM 28.1450 -80.6972 181° South 362 417 10,500 -1,980 Descending Miami Center
01:40PM 28.0594 -80.6989 181° South 333 383 8,500 -1,980 Descending Miami Center
01:41PM 27.9867 -80.6869 172° South 305 351 6,600 -1,320 Descending Miami Center
01:42PM 27.8994 -80.6747 173° South 294 338 5,900 -840 Descending Miami Center
01:43PM 27.8347 -80.6678 175° South 257 296 5,000 -1,320 Descending Miami Center
01:44PM 27.7767 -80.6589 172° South 222 255 3,300 -1,020 Descending Miami Center
01:45PM 27.7311 -80.6386 158° South 203 234 3,000 -180 Descending Miami Center
01:46PM 27.7094 -80.5886 116° Southeast 175 201 3,000 -420 Level Miami Center
01:47PM 27.6922 -80.5342 110° East 169 194 2,200 -900 Descending Miami Center
01:48PM 27.6786 -80.4939 111° Southeast 145 167 1,200 -840 Descending Miami Center
01:49PM 27.6669 -80.4583 110° East 125 144 600 -480 Descending Miami Center
01:50PM 27.6572 -80.4275 110° East 120 138 300 -300 Descending Miami Center